createdAt,value
2022-09-16T00:12:53.376Z,99440.77
2022-09-16T00:42:56.173Z,99456.38
2022-09-16T01:13:00.091Z,99456.48
2022-09-16T01:43:02.943Z,99463.22
2022-09-16T02:13:06.932Z,99476.48
2022-09-16T02:43:10.091Z,99472.36
2022-09-16T03:13:13.457Z,99480.13
2022-09-16T03:43:16.859Z,99476.61
2022-09-16T04:13:20.354Z,99480.78
2022-09-16T04:43:24.360Z,99481.77
2022-09-16T05:13:27.852Z,99496.05
2022-09-16T05:43:31.013Z,99495.34
2022-09-16T06:13:33.998Z,99491.81
2022-09-16T06:43:37.334Z,99471.75
2022-09-16T07:13:40.217Z,99483.48
2022-09-16T07:43:43.832Z,99492.81
2022-09-16T08:13:47.984Z,99492.04
2022-09-16T08:43:51.194Z,99488.14
2022-09-16T09:13:54.839Z,99475.98
2022-09-16T09:43:57.583Z,99462.98
2022-09-16T10:14:01.951Z,99451.13
2022-09-16T10:44:04.672Z,99460.72
2022-09-16T11:14:09.563Z,99470.05
2022-09-16T11:44:12.271Z,99444.83
2022-09-16T12:14:16.052Z,99445.32
2022-09-16T12:44:33.464Z,99393.72
2022-09-16T13:14:37.826Z,99374.55
2022-09-16T13:44:40.595Z,99402.20
2022-09-16T14:14:47.508Z,99395.22
2022-09-16T14:44:50.921Z,99366.16
2022-09-16T15:14:55.183Z,99357.71
2022-09-16T15:44:57.922Z,99352.62
2022-09-16T16:15:01.743Z,99335.31
2022-09-16T16:45:04.514Z,99330.05
2022-09-16T17:15:11.016Z,99351.38
2022-09-16T17:45:13.756Z,99359.66
2022-09-16T18:15:17.792Z,99363.77
2022-09-16T18:45:20.648Z,99365.81
2022-09-16T19:15:25.799Z,99365.81
2022-09-16T19:45:28.942Z,99368.53
2022-09-16T20:15:32.317Z,99355.15
2022-09-16T20:45:35.674Z,99369.70
2022-09-16T21:15:39.496Z,99365.72
2022-09-16T21:45:42.895Z,99362.53
2022-09-16T22:15:45.779Z,99361.55
2022-09-16T22:45:49.384Z,99344.48
2022-09-16T23:15:52.383Z,99333.02
2022-09-16T23:45:55.158Z,99309.34
